Skip Navigation Links
NOAA logo - Click to go to the NOAA homepage
NOAA's National Weather Service
Alaska Aviation Weather Unit
  NWS logo - Click to go to the NWS homepage
Left Navbar Graphic     21 AKDT = 05 GMT

   
NOAA is celebrating 200 years of science, service, and stewardship. Visit the NOAA 200th celebration Web site to learn more.
USA.gov is the U.S. Government's official Web portal to all Federal, state and local government Web resources and services.
Facebook
NWS on Facebook

AAWU Home :: Display TAF Add Bookmark
TAF PAQT 262320Z 2700/2724 06013KT P6SM OVC020
     FM270900 06011KT 4SM BR SCT007 OVC010=
METAR PAQT 262353Z AUTO 06013KT 10SM OVC018 M14/M17 A3010 RMK AO2 SLP194
     60000 T11441172 11144 21156 58003 TSNO=

METAR PAQT 270053Z AUTO 06013KT 10SM OVC019 M15/M17 A3010 RMK AO2 SLP193
     T11501172 TSNO=

METAR PAQT 270153Z AUTO 06015KT 10SM OVC018 M14/M17 A3009 RMK AO2 SLP192
     T11441172 TSNO=

METAR PAQT 270253Z AUTO 05014KT 10SM OVC020 M14/M17 A3010 RMK AO2 SLP194
     T11441172 55000 TSNO=

METAR PAQT 270353Z AUTO 06014KT 6SM BLSN BR SCT019 M16/M17 A3010 RMK AO2
     SLP193 T11561172 TSNO=

PAQT 270433Z AUTO 05012KT 10SM BKN018 M16/M18 A3010=

METAR PAQT 270453Z AUTO 06011KT 10SM OVC018 M16/M17 A3010 RMK AO2 SLP193
     T11561172 TSNO=


NOAA's National Weather Service
Alaska Aviation Weather Unit
6930 Sand Lake Road
Anchorage, AK 99502-1845
Disclaimer
Credits
Glossary
Privacy Policy
About Us
Career Opportunities
Contact AAWU Internet Services Site last modified: April, 17th 2012